createdAt,value
2023-07-10T00:00:20.866Z,348.00
2023-07-10T00:01:20.991Z,349.00
2023-07-10T00:02:20.993Z,350.00
2023-07-10T00:03:21.024Z,350.00
2023-07-10T00:04:21.021Z,353.00
2023-07-10T00:05:21.048Z,352.00
2023-07-10T00:06:21.082Z,354.00
2023-07-10T00:07:21.109Z,353.00
2023-07-10T00:08:21.136Z,355.00
2023-07-10T00:09:21.189Z,356.00
2023-07-10T00:10:21.184Z,357.00
2023-07-10T00:11:21.196Z,354.00
2023-07-10T00:12:21.186Z,355.00
2023-07-10T00:13:21.197Z,355.00
2023-07-10T00:14:21.197Z,356.00
2023-07-10T00:15:21.196Z,356.00
2023-07-10T00:16:21.348Z,355.00
2023-07-10T00:17:21.228Z,352.00
2023-07-10T00:18:21.207Z,350.00
2023-07-10T00:19:23.755Z,352.00
2023-07-10T00:20:21.231Z,352.00
2023-07-10T00:21:21.254Z,356.00
2023-07-10T00:22:21.251Z,354.00
2023-07-10T00:23:21.244Z,352.00
2023-07-10T00:24:21.261Z,351.00
2023-07-10T00:25:21.280Z,351.00
2023-07-10T00:26:21.279Z,350.00
2023-07-10T00:27:21.301Z,349.00
2023-07-10T00:28:21.307Z,351.00
2023-07-10T00:29:21.289Z,352.00
2023-07-10T00:30:21.303Z,355.00
2023-07-10T00:31:21.383Z,354.00
2023-07-10T00:32:21.343Z,356.00
2023-07-10T00:33:21.326Z,356.00
2023-07-10T00:34:21.335Z,353.00
2023-07-10T00:35:21.352Z,353.00
2023-07-10T00:36:21.336Z,354.00
2023-07-10T00:37:21.346Z,356.00
2023-07-10T00:38:21.379Z,353.00
2023-07-10T00:39:21.369Z,352.00
2023-07-10T00:40:21.432Z,354.00
2023-07-10T00:41:21.389Z,354.00
2023-07-10T00:42:21.399Z,355.00
2023-07-10T00:43:21.419Z,356.00
2023-07-10T00:44:21.417Z,355.00
2023-07-10T00:45:21.420Z,355.00
2023-07-10T00:46:21.482Z,356.00
2023-07-10T00:47:21.497Z,355.00
2023-07-10T00:48:21.468Z,351.00
2023-07-10T00:49:21.466Z,350.00
2023-07-10T00:50:21.487Z,352.00
2023-07-10T00:51:21.475Z,355.00
2023-07-10T00:52:21.497Z,356.00
2023-07-10T00:53:21.509Z,355.00
2023-07-10T00:54:21.523Z,357.00
2023-07-10T00:55:21.535Z,357.00
2023-07-10T00:56:21.545Z,356.00
2023-07-10T00:57:21.553Z,359.00
2023-07-10T00:58:29.852Z,362.00
2023-07-10T00:59:22.610Z,359.00
2023-07-10T01:00:21.586Z,358.00
2023-07-10T01:01:21.648Z,359.00
2023-07-10T01:02:21.714Z,360.00
2023-07-10T01:03:21.624Z,359.00
2023-07-10T01:04:21.622Z,361.00
2023-07-10T01:05:21.642Z,359.00
2023-07-10T01:06:21.632Z,358.00
2023-07-10T01:07:21.661Z,358.00
2023-07-10T01:08:21.662Z,359.00
2023-07-10T01:09:21.680Z,356.00
2023-07-10T01:10:21.709Z,358.00
2023-07-10T01:11:21.728Z,359.00
2023-07-10T01:12:21.719Z,359.00
2023-07-10T01:13:21.769Z,360.00
2023-07-10T01:14:21.746Z,362.00
2023-07-10T01:15:21.814Z,359.00
2023-07-10T01:16:21.861Z,361.00
2023-07-10T01:17:21.927Z,360.00
2023-07-10T01:18:21.956Z,362.00
2023-07-10T01:19:21.998Z,363.00
2023-07-10T01:20:22.048Z,360.00
2023-07-10T01:21:22.086Z,360.00
2023-07-10T01:22:22.130Z,358.00
2023-07-10T01:23:22.168Z,355.00
2023-07-10T01:24:22.193Z,357.00
2023-07-10T01:25:22.249Z,357.00
2023-07-10T01:26:22.270Z,355.00
2023-07-10T01:27:22.282Z,354.00
2023-07-10T01:28:22.321Z,353.00
2023-07-10T01:29:22.341Z,349.00
2023-07-10T01:30:22.368Z,347.00
2023-07-10T01:31:22.411Z,347.00
2023-07-10T01:32:22.417Z,348.00
2023-07-10T01:33:22.442Z,352.00
2023-07-10T01:34:22.450Z,349.00
2023-07-10T01:35:22.461Z,346.00
2023-07-10T01:36:22.485Z,345.00
2023-07-10T01:37:22.508Z,343.00
2023-07-10T01:38:22.544Z,346.00
2023-07-10T01:39:22.533Z,346.00
2023-07-10T01:40:22.559Z,346.00
2023-07-10T01:41:22.563Z,347.00
2023-07-10T01:42:22.588Z,347.00
2023-07-10T01:43:22.616Z,346.00
2023-07-10T01:44:22.601Z,346.00
2023-07-10T01:45:22.612Z,346.00
2023-07-10T01:46:22.630Z,344.00
2023-07-10T01:47:22.716Z,342.00
2023-07-10T01:48:22.812Z,343.00
2023-07-10T01:49:22.681Z,344.00
2023-07-10T01:50:22.655Z,344.00
2023-07-10T01:51:22.656Z,341.00
2023-07-10T01:52:22.678Z,343.00
2023-07-10T01:53:22.683Z,343.00
2023-07-10T01:54:22.705Z,342.00
2023-07-10T01:55:22.722Z,342.00
2023-07-10T01:56:22.726Z,343.00
2023-07-10T01:57:22.711Z,345.00
2023-07-10T01:58:22.729Z,345.00
2023-07-10T01:59:22.748Z,347.00
2023-07-10T02:00:22.760Z,348.00
2023-07-10T02:01:22.740Z,349.00
2023-07-10T02:02:22.850Z,350.00
2023-07-10T02:03:22.793Z,352.00
2023-07-10T02:04:22.727Z,352.00
2023-07-10T02:05:22.763Z,354.00
2023-07-10T02:06:22.744Z,353.00
2023-07-10T02:07:22.792Z,354.00
2023-07-10T02:08:22.805Z,354.00
2023-07-10T02:09:22.799Z,352.00
2023-07-10T02:10:32.154Z,353.00
2023-07-10T02:11:23.790Z,354.00
2023-07-10T02:12:22.791Z,352.00
2023-07-10T02:13:22.789Z,350.00
2023-07-10T02:14:22.751Z,348.00
2023-07-10T02:15:22.754Z,347.00
2023-07-10T02:16:22.755Z,347.00
2023-07-10T02:17:22.869Z,345.00
2023-07-10T02:18:22.754Z,342.00
2023-07-10T02:19:22.744Z,341.00
2023-07-10T02:20:22.747Z,340.00
2023-07-10T02:21:22.748Z,338.00
2023-07-10T02:22:22.729Z,341.00
2023-07-10T02:23:22.731Z,341.00
2023-07-10T02:24:22.731Z,344.00
2023-07-10T02:25:22.730Z,344.00
2023-07-10T02:26:24.612Z,344.00
2023-07-10T02:27:22.722Z,346.00
2023-07-10T02:28:22.734Z,345.00
2023-07-10T02:29:22.705Z,342.00
2023-07-10T02:30:22.703Z,341.00
2023-07-10T02:31:22.723Z,343.00
2023-07-10T02:32:22.717Z,342.00
2023-07-10T02:33:22.699Z,342.00
2023-07-10T02:34:22.684Z,341.00
2023-07-10T02:35:22.695Z,339.00
2023-07-10T02:36:22.682Z,338.00
2023-07-10T02:37:22.682Z,337.00
2023-07-10T02:38:22.683Z,337.00
2023-07-10T02:39:22.709Z,338.00
2023-07-10T02:40:22.744Z,337.00
2023-07-10T02:41:22.760Z,340.00
2023-07-10T02:42:22.783Z,341.00
2023-07-10T02:43:22.793Z,340.00
2023-07-10T02:44:22.799Z,342.00
2023-07-10T02:45:22.822Z,342.00
2023-07-10T02:46:22.875Z,344.00
2023-07-10T02:47:22.878Z,344.00
2023-07-10T02:48:22.840Z,344.00
2023-07-10T02:49:22.847Z,343.00
2023-07-10T02:50:22.872Z,341.00
2023-07-10T02:51:22.955Z,340.00
2023-07-10T02:52:22.919Z,340.00
2023-07-10T02:53:22.951Z,336.00
2023-07-10T02:54:22.952Z,336.00
2023-07-10T02:55:22.961Z,336.00
2023-07-10T02:56:22.952Z,337.00
2023-07-10T02:57:22.985Z,342.00
2023-07-10T02:58:22.997Z,344.00
2023-07-10T02:59:23.069Z,343.00
2023-07-10T03:00:23.092Z,344.00
2023-07-10T03:01:23.107Z,343.00
2023-07-10T03:02:23.100Z,345.00
2023-07-10T03:03:23.109Z,346.00
2023-07-10T03:04:23.166Z,346.00
2023-07-10T03:05:23.203Z,345.00
2023-07-10T03:06:23.185Z,345.00
2023-07-10T03:07:23.206Z,345.00
2023-07-10T03:08:23.214Z,344.00
2023-07-10T03:09:23.220Z,346.00
2023-07-10T03:10:23.236Z,346.00
2023-07-10T03:11:23.226Z,343.00
2023-07-10T03:12:23.225Z,343.00
2023-07-10T03:13:23.265Z,341.00
2023-07-10T03:14:23.249Z,338.00
2023-07-10T03:15:23.289Z,338.00
2023-07-10T03:16:23.278Z,337.00
2023-07-10T03:17:23.311Z,337.00
2023-07-10T03:18:23.267Z,338.00
2023-07-10T03:19:23.292Z,334.00
2023-07-10T03:20:23.316Z,336.00
2023-07-10T03:21:23.346Z,339.00
2023-07-10T03:22:23.365Z,339.00
2023-07-10T03:23:23.371Z,339.00
2023-07-10T03:24:23.384Z,340.00
2023-07-10T03:25:23.385Z,340.00
2023-07-10T03:26:23.408Z,340.00
2023-07-10T03:27:23.395Z,342.00
2023-07-10T03:28:23.407Z,340.00
2023-07-10T03:29:23.501Z,342.00
2023-07-10T03:30:23.488Z,343.00
2023-07-10T03:31:23.526Z,347.00
2023-07-10T03:32:23.547Z,349.00
2023-07-10T03:33:23.470Z,349.00
2023-07-10T03:34:23.489Z,349.00
2023-07-10T03:35:23.504Z,346.00
2023-07-10T03:36:23.501Z,344.00
2023-07-10T03:37:23.498Z,344.00
2023-07-10T03:38:23.500Z,345.00
2023-07-10T03:39:23.499Z,347.00
2023-07-10T03:40:23.486Z,348.00
2023-07-10T03:41:23.476Z,347.00
2023-07-10T03:42:23.480Z,347.00
2023-07-10T03:43:23.480Z,347.00
2023-07-10T03:44:23.485Z,346.00
2023-07-10T03:45:23.507Z,344.00
2023-07-10T03:46:23.563Z,342.00
2023-07-10T03:47:23.582Z,342.00
2023-07-10T03:48:23.565Z,345.00
2023-07-10T03:49:23.583Z,344.00
2023-07-10T03:50:23.590Z,345.00
2023-07-10T03:51:23.619Z,348.00
2023-07-10T03:52:23.624Z,347.00
2023-07-10T03:53:23.597Z,349.00
2023-07-10T03:54:23.606Z,350.00
2023-07-10T03:55:23.609Z,353.00
2023-07-10T03:56:23.606Z,352.00
2023-07-10T03:57:23.569Z,354.00
2023-07-10T03:58:23.580Z,355.00
2023-07-10T03:59:23.576Z,355.00
2023-07-10T04:00:23.548Z,350.00
2023-07-10T04:01:23.630Z,349.00
2023-07-10T04:02:23.598Z,349.00
2023-07-10T04:03:23.679Z,349.00
2023-07-10T04:04:23.551Z,349.00
2023-07-10T04:05:23.628Z,348.00
2023-07-10T04:06:23.597Z,349.00
2023-07-10T04:07:23.587Z,350.00
2023-07-10T04:08:23.597Z,351.00
2023-07-10T04:09:23.579Z,349.00
2023-07-10T04:10:23.598Z,350.00
2023-07-10T04:11:23.610Z,351.00
2023-07-10T04:12:23.937Z,351.00
2023-07-10T04:13:23.589Z,351.00
2023-07-10T04:14:23.548Z,350.00
2023-07-10T04:15:23.545Z,347.00
2023-07-10T04:16:23.568Z,347.00
2023-07-10T04:17:23.564Z,345.00
2023-07-10T04:18:23.543Z,347.00
2023-07-10T04:19:23.529Z,344.00
2023-07-10T04:20:23.536Z,342.00
2023-07-10T04:21:23.538Z,343.00
2023-07-10T04:22:23.532Z,344.00
2023-07-10T04:23:23.566Z,344.00
2023-07-10T04:24:23.586Z,345.00
2023-07-10T04:25:23.628Z,345.00
2023-07-10T04:26:23.664Z,345.00
2023-07-10T04:27:23.649Z,346.00
2023-07-10T04:28:23.661Z,345.00
2023-07-10T04:29:23.659Z,346.00
2023-07-10T04:30:23.698Z,343.00
2023-07-10T04:31:23.768Z,342.00
2023-07-10T04:32:23.760Z,342.00
2023-07-10T04:33:23.778Z,341.00
2023-07-10T04:34:23.777Z,339.00
2023-07-10T04:35:23.823Z,340.00
2023-07-10T04:36:23.850Z,340.00
2023-07-10T04:37:23.857Z,341.00
2023-07-10T04:38:23.863Z,344.00
2023-07-10T04:39:23.902Z,345.00
2023-07-10T04:40:23.917Z,346.00
2023-07-10T04:41:23.953Z,347.00
2023-07-10T04:42:23.900Z,347.00
2023-07-10T04:43:23.919Z,349.00
2023-07-10T04:44:23.899Z,348.00
2023-07-10T04:45:23.896Z,348.00
2023-07-10T04:46:23.917Z,346.00
2023-07-10T04:47:23.930Z,346.00
2023-07-10T04:48:24.000Z,345.00
2023-07-10T04:49:23.869Z,345.00
2023-07-10T04:50:23.868Z,345.00
2023-07-10T04:51:23.850Z,347.00
2023-07-10T04:52:23.849Z,344.00
2023-07-10T04:53:23.836Z,343.00
2023-07-10T04:54:23.840Z,342.00
2023-07-10T04:55:23.881Z,340.00
2023-07-10T04:56:23.876Z,339.00
2023-07-10T04:57:23.917Z,340.00
2023-07-10T04:58:23.924Z,340.00
2023-07-10T04:59:23.952Z,339.00
2023-07-10T05:00:24.025Z,340.00
2023-07-10T05:01:23.992Z,340.00
2023-07-10T05:02:24.069Z,340.00
2023-07-10T05:03:24.054Z,340.00
2023-07-10T05:04:24.100Z,341.00
2023-07-10T05:05:24.099Z,339.00
2023-07-10T05:06:24.152Z,339.00
2023-07-10T05:07:24.156Z,340.00
2023-07-10T05:08:24.187Z,344.00
2023-07-10T05:09:24.198Z,343.00
2023-07-10T05:10:24.220Z,345.00
2023-07-10T05:11:24.261Z,343.00
2023-07-10T05:12:24.259Z,344.00
2023-07-10T05:13:24.284Z,341.00
2023-07-10T05:14:24.320Z,343.00
2023-07-10T05:15:24.362Z,345.00
2023-07-10T05:16:24.490Z,347.00
2023-07-10T05:17:24.444Z,345.00
2023-07-10T05:18:24.488Z,344.00
2023-07-10T05:19:24.558Z,345.00
2023-07-10T05:20:24.565Z,343.00
2023-07-10T05:21:24.623Z,344.00
2023-07-10T05:22:24.664Z,342.00
2023-07-10T05:23:24.672Z,342.00
2023-07-10T05:24:24.711Z,343.00
2023-07-10T05:25:24.775Z,345.00
2023-07-10T05:26:24.838Z,345.00
2023-07-10T05:27:24.837Z,343.00
2023-07-10T05:28:24.856Z,340.00
2023-07-10T05:29:24.891Z,339.00
2023-07-10T05:30:24.906Z,337.00
2023-07-10T05:31:25.017Z,337.00
2023-07-10T05:32:24.996Z,337.00
2023-07-10T05:33:25.012Z,337.00
2023-07-10T05:34:25.091Z,335.00
2023-07-10T05:35:25.119Z,336.00
2023-07-10T05:36:25.236Z,335.00
2023-07-10T05:37:25.255Z,334.00
2023-07-10T05:38:25.264Z,334.00
2023-07-10T05:39:25.289Z,335.00
2023-07-10T05:40:25.339Z,334.00
2023-07-10T05:41:25.342Z,336.00
2023-07-10T05:42:25.378Z,339.00
2023-07-10T05:43:25.438Z,339.00
2023-07-10T05:44:25.475Z,339.00
2023-07-10T05:45:25.505Z,338.00
2023-07-10T05:46:25.559Z,336.00
2023-07-10T05:47:25.708Z,336.00
2023-07-10T05:48:25.640Z,336.00
2023-07-10T05:49:25.677Z,336.00
2023-07-10T05:50:25.775Z,337.00
2023-07-10T05:51:25.787Z,336.00
2023-07-10T05:52:25.827Z,338.00
2023-07-10T05:53:25.860Z,337.00
2023-07-10T05:54:25.892Z,337.00
2023-07-10T05:55:25.962Z,335.00
2023-07-10T05:56:25.978Z,336.00
2023-07-10T05:57:26.008Z,335.00
2023-07-10T05:58:26.000Z,336.00
2023-07-10T05:59:26.052Z,338.00
2023-07-10T06:00:26.113Z,337.00
2023-07-10T06:01:26.261Z,340.00
2023-07-10T06:02:26.172Z,338.00
2023-07-10T06:03:26.223Z,336.00
2023-07-10T06:04:28.830Z,335.00
2023-07-10T06:05:26.190Z,336.00
2023-07-10T06:06:26.188Z,336.00
2023-07-10T06:07:26.189Z,335.00
2023-07-10T06:08:26.191Z,336.00
2023-07-10T06:09:26.152Z,337.00
2023-07-10T06:10:26.142Z,337.00
2023-07-10T06:11:26.124Z,336.00
2023-07-10T06:12:26.171Z,336.00
2023-07-10T06:13:26.145Z,332.00
2023-07-10T06:14:26.131Z,328.00
2023-07-10T06:15:26.134Z,328.00
2023-07-10T06:16:26.125Z,328.00
2023-07-10T06:17:26.086Z,327.00
2023-07-10T06:18:26.092Z,328.00
2023-07-10T06:19:26.136Z,326.00
2023-07-10T06:20:26.228Z,328.00
2023-07-10T06:21:26.274Z,330.00
2023-07-10T06:22:26.332Z,332.00
2023-07-10T06:23:26.384Z,332.00
2023-07-10T06:24:26.450Z,331.00
2023-07-10T06:25:26.486Z,330.00
2023-07-10T06:26:26.557Z,332.00
2023-07-10T06:27:26.594Z,332.00
2023-07-10T06:28:26.767Z,332.00
2023-07-10T06:29:26.706Z,333.00
2023-07-10T06:30:26.770Z,335.00
2023-07-10T06:31:26.897Z,333.00
2023-07-10T06:32:26.936Z,335.00
2023-07-10T06:33:26.929Z,336.00
2023-07-10T06:34:26.984Z,337.00
2023-07-10T06:35:27.053Z,337.00
2023-07-10T06:36:27.132Z,337.00
2023-07-10T06:37:27.180Z,337.00
2023-07-10T06:38:27.205Z,337.00
2023-07-10T06:39:27.262Z,338.00
2023-07-10T06:40:27.297Z,336.00
2023-07-10T06:41:27.348Z,336.00
2023-07-10T06:42:27.413Z,335.00
2023-07-10T06:43:27.421Z,332.00
2023-07-10T06:44:27.474Z,332.00
2023-07-10T06:45:27.516Z,333.00
2023-07-10T06:46:27.585Z,332.00
2023-07-10T06:47:27.624Z,331.00
2023-07-10T06:48:27.630Z,332.00
2023-07-10T06:49:27.663Z,331.00
2023-07-10T06:50:27.743Z,330.00
2023-07-10T06:51:27.763Z,329.00
2023-07-10T06:52:27.802Z,330.00
2023-07-10T06:53:28.701Z,331.00
2023-07-10T06:54:27.818Z,327.00
2023-07-10T06:55:27.805Z,329.00
2023-07-10T06:56:27.783Z,328.00
2023-07-10T06:57:27.768Z,328.00
2023-07-10T06:58:27.777Z,328.00
2023-07-10T06:59:27.747Z,327.00
2023-07-10T07:00:27.825Z,328.00
2023-07-10T07:01:27.784Z,327.00
2023-07-10T07:02:27.719Z,327.00
2023-07-10T07:03:27.833Z,326.00
2023-07-10T07:04:27.687Z,325.00
2023-07-10T07:05:27.692Z,326.00
2023-07-10T07:06:28.490Z,324.00
2023-07-10T07:07:27.724Z,324.00
2023-07-10T07:08:27.757Z,324.00
2023-07-10T07:09:27.799Z,327.00
2023-07-10T07:10:27.830Z,324.00
2023-07-10T07:11:27.843Z,321.00
2023-07-10T07:12:27.871Z,321.00
2023-07-10T07:13:28.045Z,321.00
2023-07-10T07:14:27.950Z,321.00
2023-07-10T07:15:28.014Z,321.00
2023-07-10T07:16:28.046Z,320.00
2023-07-10T07:17:28.021Z,315.00
2023-07-10T07:18:29.700Z,317.00
2023-07-10T07:19:28.091Z,316.00
2023-07-10T07:20:28.142Z,314.00
2023-07-10T07:21:28.161Z,311.00
2023-07-10T07:22:28.195Z,308.00
2023-07-10T07:23:28.231Z,308.00
2023-07-10T07:24:28.234Z,308.00
2023-07-10T07:25:28.261Z,311.00
2023-07-10T07:26:28.271Z,311.00
2023-07-10T07:27:28.326Z,311.00
2023-07-10T07:28:28.351Z,312.00
2023-07-10T07:29:28.364Z,312.00
2023-07-10T07:30:28.416Z,314.00
2023-07-10T07:31:28.455Z,315.00
2023-07-10T07:32:28.488Z,316.00
2023-07-10T07:33:28.490Z,314.00
2023-07-10T07:34:28.522Z,317.00
2023-07-10T07:35:28.545Z,317.00
2023-07-10T07:36:28.565Z,316.00
2023-07-10T07:37:28.604Z,316.00
2023-07-10T07:38:28.629Z,318.00
2023-07-10T07:39:28.669Z,319.00
2023-07-10T07:40:28.713Z,317.00
2023-07-10T07:42:28.750Z,315.00
2023-07-10T07:43:28.741Z,315.00
2023-07-10T07:44:28.751Z,314.00
2023-07-10T07:45:28.780Z,316.00
2023-07-10T07:46:28.816Z,317.00
2023-07-10T07:47:28.887Z,315.00
2023-07-10T07:48:28.907Z,314.00
2023-07-10T07:49:28.861Z,313.00
2023-07-10T07:50:28.881Z,316.00
2023-07-10T07:51:28.889Z,315.00
2023-07-10T07:52:28.919Z,313.00
2023-07-10T07:53:28.936Z,313.00
2023-07-10T07:54:28.967Z,312.00
2023-07-10T07:55:28.968Z,312.00
2023-07-10T07:56:28.970Z,312.00
2023-07-10T07:57:29.002Z,314.00
2023-07-10T07:58:29.032Z,317.00
2023-07-10T07:59:29.023Z,317.00
2023-07-10T08:00:29.062Z,317.00
2023-07-10T08:01:29.073Z,319.00
2023-07-10T08:02:29.113Z,322.00
2023-07-10T08:03:29.216Z,324.00
2023-07-10T08:04:29.186Z,326.00
2023-07-10T08:05:36.676Z,325.00
2023-07-10T08:06:30.100Z,325.00
2023-07-10T08:07:29.083Z,320.00
2023-07-10T08:08:29.050Z,320.00
2023-07-10T08:09:29.014Z,319.00
2023-07-10T08:10:29.010Z,318.00
2023-07-10T08:11:28.992Z,317.00
2023-07-10T08:12:28.959Z,319.00
2023-07-10T08:13:28.980Z,319.00
2023-07-10T08:14:28.918Z,319.00
2023-07-10T08:15:28.906Z,319.00
2023-07-10T08:16:29.064Z,320.00
2023-07-10T08:17:28.876Z,321.00
2023-07-10T08:18:28.849Z,322.00
2023-07-10T08:19:28.813Z,322.00
2023-07-10T08:20:28.825Z,322.00
2023-07-10T08:21:28.782Z,317.00
2023-07-10T08:22:28.782Z,314.00
2023-07-10T08:23:28.769Z,315.00
2023-07-10T08:24:28.778Z,314.00
2023-07-10T08:25:28.807Z,313.00
2023-07-10T08:26:28.835Z,311.00
2023-07-10T08:27:28.842Z,307.00
2023-07-10T08:28:28.854Z,306.00
2023-07-10T08:29:28.881Z,305.00
2023-07-10T08:30:28.991Z,303.00
2023-07-10T08:31:28.920Z,303.00
2023-07-10T08:32:28.942Z,303.00
2023-07-10T08:33:28.940Z,303.00
2023-07-10T08:34:28.958Z,302.00
2023-07-10T08:35:28.970Z,303.00
2023-07-10T08:36:29.000Z,301.00
2023-07-10T08:37:28.996Z,300.00
2023-07-10T08:38:28.994Z,299.00
2023-07-10T08:39:29.010Z,301.00
2023-07-10T08:40:29.141Z,299.00
2023-07-10T08:41:29.033Z,299.00
2023-07-10T08:42:29.032Z,299.00
2023-07-10T08:43:29.032Z,299.00
2023-07-10T08:44:29.014Z,296.00
2023-07-10T08:45:29.004Z,293.00
2023-07-10T08:46:29.082Z,296.00
2023-07-10T08:47:29.044Z,297.00
2023-07-10T08:48:29.018Z,299.00
2023-07-10T08:49:28.978Z,299.00
2023-07-10T08:50:28.960Z,301.00
2023-07-10T08:51:28.957Z,301.00
2023-07-10T08:52:28.942Z,302.00
2023-07-10T08:53:28.925Z,303.00
2023-07-10T08:54:28.919Z,303.00
2023-07-10T08:55:28.927Z,301.00
2023-07-10T08:56:28.921Z,301.00
2023-07-10T08:57:28.923Z,300.00
2023-07-10T08:58:28.926Z,301.00
2023-07-10T08:59:28.924Z,303.00
2023-07-10T09:00:28.937Z,301.00
2023-07-10T09:01:28.955Z,302.00
2023-07-10T09:02:28.959Z,302.00
2023-07-10T09:03:28.960Z,300.00
2023-07-10T09:04:29.011Z,298.00
2023-07-10T09:05:28.919Z,299.00
2023-07-10T09:06:28.939Z,297.00
2023-07-10T09:07:28.901Z,297.00
2023-07-10T09:08:28.881Z,298.00
2023-07-10T09:09:28.870Z,294.00
2023-07-10T09:10:28.856Z,294.00
2023-07-10T09:11:28.947Z,295.00
2023-07-10T09:12:28.805Z,296.00
2023-07-10T09:13:28.807Z,297.00
2023-07-10T09:14:28.769Z,298.00
2023-07-10T09:15:28.736Z,298.00
2023-07-10T09:16:28.765Z,294.00
2023-07-10T09:17:28.733Z,289.00
2023-07-10T09:18:28.654Z,287.00
2023-07-10T09:19:28.628Z,286.00
2023-07-10T09:20:28.691Z,286.00
2023-07-10T09:21:28.590Z,285.00
2023-07-10T09:22:28.558Z,285.00
2023-07-10T09:23:28.530Z,284.00
2023-07-10T09:24:28.525Z,283.00
2023-07-10T09:25:28.489Z,286.00
2023-07-10T09:26:28.461Z,286.00
2023-07-10T09:27:28.428Z,289.00
2023-07-10T09:28:28.401Z,289.00
2023-07-10T09:29:28.364Z,291.00
2023-07-10T09:30:28.337Z,290.00
2023-07-10T09:31:30.227Z,289.00
2023-07-10T09:32:28.317Z,289.00
2023-07-10T09:33:28.225Z,288.00
2023-07-10T09:34:28.199Z,289.00
2023-07-10T09:35:28.168Z,289.00
2023-07-10T09:36:28.132Z,289.00
2023-07-10T09:37:28.106Z,291.00
2023-07-10T09:38:28.058Z,295.00
2023-07-10T09:39:28.015Z,295.00
2023-07-10T09:40:27.966Z,296.00
2023-07-10T09:41:27.964Z,295.00
2023-07-10T09:42:27.903Z,295.00
2023-07-10T09:43:27.870Z,297.00
2023-07-10T09:44:27.833Z,293.00
2023-07-10T09:45:27.774Z,294.00
2023-07-10T09:46:27.774Z,291.00
2023-07-10T09:47:27.734Z,290.00
2023-07-10T09:48:27.674Z,288.00
2023-07-10T09:49:27.645Z,288.00
2023-07-10T09:50:27.592Z,288.00
2023-07-10T09:51:27.545Z,290.00
2023-07-10T09:52:27.546Z,290.00
2023-07-10T09:53:27.484Z,289.00
2023-07-10T09:54:27.465Z,287.00
2023-07-10T09:55:27.397Z,283.00
2023-07-10T09:56:27.378Z,279.00
2023-07-10T09:57:27.316Z,280.00
2023-07-10T09:58:27.281Z,282.00
2023-07-10T09:59:27.242Z,283.00
2023-07-10T10:00:27.218Z,282.00
2023-07-10T10:01:27.223Z,285.00
2023-07-10T10:02:27.173Z,284.00
2023-07-10T10:03:27.199Z,282.00
2023-07-10T10:04:27.192Z,284.00
2023-07-10T10:05:27.153Z,289.00
2023-07-10T10:06:27.129Z,291.00
2023-07-10T10:07:27.101Z,291.00
2023-07-10T10:08:27.056Z,291.00
2023-07-10T10:09:27.000Z,290.00
2023-07-10T10:10:26.982Z,288.00
2023-07-10T10:11:26.927Z,287.00
2023-07-10T10:12:26.891Z,285.00
2023-07-10T10:13:27.372Z,285.00
2023-07-10T10:14:26.827Z,284.00
2023-07-10T10:15:26.800Z,285.00
2023-07-10T10:16:26.727Z,286.00
2023-07-10T10:17:26.777Z,287.00
2023-07-10T10:18:26.800Z,287.00
2023-07-10T10:19:26.623Z,283.00
2023-07-10T10:20:26.579Z,284.00
2023-07-10T10:21:26.562Z,285.00
2023-07-10T10:22:26.502Z,287.00
2023-07-10T10:23:26.469Z,288.00
2023-07-10T10:24:26.505Z,287.00
2023-07-10T10:25:26.517Z,286.00
2023-07-10T10:26:26.572Z,287.00
2023-07-10T10:27:26.571Z,288.00
2023-07-10T10:28:26.642Z,287.00
2023-07-10T10:29:26.633Z,285.00
2023-07-10T10:30:26.656Z,286.00
2023-07-10T10:31:26.734Z,285.00
2023-07-10T10:32:26.738Z,283.00
2023-07-10T10:33:26.749Z,285.00
2023-07-10T10:34:26.785Z,288.00
2023-07-10T10:35:26.821Z,287.00
2023-07-10T10:36:26.855Z,287.00
2023-07-10T10:37:26.866Z,284.00
2023-07-10T10:38:26.893Z,284.00
2023-07-10T10:39:26.905Z,283.00
2023-07-10T10:40:26.922Z,280.00
2023-07-10T10:41:26.945Z,281.00
2023-07-10T10:42:26.991Z,279.00
2023-07-10T10:43:27.049Z,280.00
2023-07-10T10:44:27.055Z,277.00
2023-07-10T10:45:27.070Z,275.00
2023-07-10T10:46:27.070Z,277.00
2023-07-10T10:47:27.002Z,281.00
2023-07-10T10:48:26.958Z,281.00
2023-07-10T10:49:26.925Z,280.00
2023-07-10T10:50:26.927Z,280.00
2023-07-10T10:51:26.864Z,278.00
2023-07-10T10:52:26.817Z,281.00
2023-07-10T10:53:26.766Z,283.00
2023-07-10T10:54:34.050Z,282.00
2023-07-10T10:55:27.709Z,283.00
2023-07-10T10:56:26.674Z,284.00
2023-07-10T10:57:26.647Z,286.00
2023-07-10T10:58:26.572Z,285.00
2023-07-10T10:59:26.532Z,284.00
2023-07-10T11:00:26.501Z,281.00
2023-07-10T11:01:26.526Z,280.00
2023-07-10T11:02:26.430Z,281.00
2023-07-10T11:03:26.503Z,281.00
2023-07-10T11:04:26.399Z,280.00
2023-07-10T11:05:26.417Z,280.00
2023-07-10T11:06:26.434Z,280.00
2023-07-10T11:07:26.460Z,283.00
2023-07-10T11:08:28.094Z,281.00
2023-07-10T11:09:26.526Z,281.00
2023-07-10T11:10:26.564Z,283.00
2023-07-10T11:11:26.601Z,283.00
2023-07-10T11:12:26.590Z,283.00
2023-07-10T11:13:26.641Z,282.00
2023-07-10T11:14:26.755Z,282.00
2023-07-10T11:15:26.705Z,280.00
2023-07-10T11:16:26.755Z,280.00
2023-07-10T11:17:26.718Z,279.00
2023-07-10T11:18:26.709Z,279.00
2023-07-10T11:19:26.744Z,287.00
2023-07-10T11:20:26.745Z,312.00
2023-07-10T11:21:26.704Z,303.00
2023-07-10T11:22:26.656Z,306.00
2023-07-10T11:23:26.625Z,305.00
2023-07-10T11:24:26.572Z,306.00
2023-07-10T11:25:26.537Z,307.00
2023-07-10T11:26:26.499Z,306.00
2023-07-10T11:27:26.497Z,304.00
2023-07-10T11:28:26.417Z,303.00
2023-07-10T11:29:26.372Z,302.00
2023-07-10T11:30:26.329Z,302.00
2023-07-10T11:31:26.367Z,301.00
2023-07-10T11:32:26.296Z,302.00
2023-07-10T11:33:26.230Z,301.00
2023-07-10T11:34:26.268Z,301.00
2023-07-10T11:35:26.317Z,301.00
2023-07-10T11:36:26.352Z,304.00
2023-07-10T11:37:26.338Z,304.00
2023-07-10T11:38:26.354Z,306.00
2023-07-10T11:39:26.355Z,309.00
2023-07-10T11:40:26.392Z,308.00
2023-07-10T11:41:26.391Z,308.00
2023-07-10T11:42:28.174Z,306.00
2023-07-10T11:43:26.348Z,308.00
2023-07-10T11:44:26.318Z,310.00
2023-07-10T11:45:26.263Z,312.00
2023-07-10T11:46:26.274Z,314.00
2023-07-10T11:47:26.273Z,315.00
2023-07-10T11:48:26.140Z,313.00
2023-07-10T11:49:26.126Z,310.00
2023-07-10T11:50:26.065Z,310.00
2023-07-10T11:51:26.047Z,310.00
2023-07-10T11:52:25.992Z,309.00
2023-07-10T11:53:25.961Z,307.00
2023-07-10T11:54:25.935Z,308.00
2023-07-10T11:55:25.893Z,308.00
2023-07-10T11:56:25.858Z,307.00
2023-07-10T11:57:25.821Z,306.00
2023-07-10T11:58:25.810Z,303.00
2023-07-10T11:59:25.785Z,302.00
2023-07-10T12:00:25.806Z,302.00
2023-07-10T12:01:25.873Z,299.00
2023-07-10T12:02:25.913Z,298.00
2023-07-10T12:03:25.970Z,299.00
2023-07-10T12:04:25.907Z,297.00
2023-07-10T12:05:25.934Z,300.00
2023-07-10T12:06:25.974Z,301.00
2023-07-10T12:07:26.006Z,300.00
2023-07-10T12:08:26.006Z,299.00
2023-07-10T12:09:26.040Z,297.00
2023-07-10T12:10:26.079Z,300.00
2023-07-10T12:11:26.109Z,300.00
2023-07-10T12:12:26.117Z,299.00
2023-07-10T12:13:26.186Z,299.00
2023-07-10T12:14:26.154Z,296.00
2023-07-10T12:15:26.190Z,294.00
2023-07-10T12:16:36.858Z,292.00
2023-07-10T12:17:40.183Z,290.00
2023-07-10T12:18:27.193Z,291.00
2023-07-10T12:19:26.142Z,294.00
2023-07-10T12:20:26.021Z,295.00
2023-07-10T12:21:25.995Z,295.00
2023-07-10T12:22:25.942Z,296.00
2023-07-10T12:23:25.873Z,296.00
2023-07-10T12:24:25.828Z,297.00
2023-07-10T12:25:25.792Z,297.00
2023-07-10T12:28:28.300Z,297.00
2023-07-10T12:29:25.602Z,298.00
2023-07-10T12:30:25.563Z,299.00
2023-07-10T12:31:25.542Z,298.00